createdAt,value
2022-10-06T00:01:49.379Z,11.91
2022-10-06T00:05:11.314Z,11.77
2022-10-06T00:08:33.896Z,11.89
2022-10-06T00:11:55.896Z,11.87
2022-10-06T00:15:20.034Z,11.88
2022-10-06T00:18:43.011Z,11.81
2022-10-06T00:22:04.962Z,11.89
2022-10-06T00:25:28.340Z,11.89
2022-10-06T00:28:50.980Z,11.88
2022-10-06T00:32:12.816Z,11.85
2022-10-06T00:35:36.211Z,11.88
2022-10-06T00:38:57.939Z,11.85
2022-10-06T00:42:25.151Z,11.69
2022-10-06T00:45:50.362Z,11.89
2022-10-06T00:49:18.819Z,11.87
2022-10-06T00:52:43.356Z,11.86
2022-10-06T00:56:05.201Z,11.85
2022-10-06T00:59:27.184Z,11.86
2022-10-06T01:02:54.912Z,11.80
2022-10-06T01:12:18.759Z,11.80
2022-10-06T01:15:48.636Z,11.79
2022-10-06T01:19:21.845Z,11.76
2022-10-06T01:22:47.011Z,11.79
2022-10-06T01:26:12.181Z,11.77
2022-10-06T01:29:35.145Z,11.78
2022-10-06T01:32:57.376Z,11.79
2022-10-06T01:36:19.410Z,11.77
2022-10-06T01:39:43.083Z,11.78
2022-10-06T01:43:04.913Z,11.71
2022-10-06T01:46:26.584Z,11.79
2022-10-06T01:49:48.332Z,11.79
2022-10-06T01:53:10.116Z,11.78
2022-10-06T01:56:33.349Z,11.80
2022-10-06T01:59:55.482Z,11.64
2022-10-06T02:03:17.194Z,11.80
2022-10-06T02:06:39.089Z,11.80
2022-10-06T02:10:01.015Z,11.77
2022-10-06T02:13:28.037Z,11.77
2022-10-06T02:16:50.840Z,11.79
2022-10-06T02:20:12.947Z,11.75
2022-10-06T02:23:35.072Z,11.76
2022-10-06T02:26:57.180Z,11.76
2022-10-06T02:30:20.595Z,11.73
2022-10-06T02:33:43.336Z,11.73
2022-10-06T02:37:05.587Z,11.44
2022-10-06T02:40:27.564Z,11.67
2022-10-06T02:43:49.452Z,11.67
2022-10-06T02:47:14.705Z,11.65
2022-10-06T02:50:37.382Z,11.67
2022-10-06T02:53:59.032Z,11.64
2022-10-06T02:57:21.492Z,11.66
2022-10-06T03:00:43.646Z,11.65
2022-10-06T03:04:06.782Z,11.65
2022-10-06T03:07:28.856Z,11.66
2022-10-06T03:10:50.705Z,11.62
2022-10-06T03:14:12.834Z,11.61
2022-10-06T03:17:35.404Z,11.62
2022-10-06T03:21:02.731Z,11.58
2022-10-06T03:24:24.543Z,11.61
2022-10-06T03:27:46.300Z,11.62
2022-10-06T03:31:09.100Z,11.62
2022-10-06T03:34:31.064Z,11.61
2022-10-06T03:37:54.293Z,11.61
2022-10-06T03:41:17.685Z,11.59
2022-10-06T03:44:39.287Z,11.62
2022-10-06T03:48:01.087Z,11.54
2022-10-06T03:51:24.528Z,11.59
2022-10-06T03:54:47.983Z,11.57
2022-10-06T03:58:10.043Z,11.56
2022-10-06T04:01:33.628Z,11.52
2022-10-06T04:04:56.002Z,11.59
2022-10-06T04:08:17.890Z,11.60
2022-10-06T04:11:42.633Z,11.52
2022-10-06T04:15:04.461Z,11.58
2022-10-06T04:18:26.966Z,11.52
2022-10-06T04:21:49.241Z,11.57
2022-10-06T04:25:11.804Z,11.56
2022-10-06T04:28:36.028Z,11.55
2022-10-06T04:31:58.304Z,11.53
2022-10-06T04:35:20.599Z,11.53
2022-10-06T04:38:42.875Z,11.52
2022-10-06T04:42:04.996Z,11.53
2022-10-06T04:45:28.375Z,11.53
2022-10-06T04:48:52.300Z,11.54
2022-10-06T04:52:15.112Z,11.34
2022-10-06T04:55:37.063Z,11.54
2022-10-06T04:58:59.504Z,11.52
2022-10-06T05:02:22.970Z,11.52
2022-10-06T05:05:45.138Z,11.52
2022-10-06T05:09:08.711Z,11.50
2022-10-06T05:12:31.454Z,11.43
2022-10-06T05:15:57.325Z,11.52
2022-10-06T05:19:20.687Z,11.49
2022-10-06T05:22:42.968Z,11.54
2022-10-06T05:26:06.067Z,11.55
2022-10-06T05:29:53.595Z,11.55
2022-10-06T05:33:15.367Z,11.44
2022-10-06T05:37:00.297Z,11.54
2022-10-06T05:40:22.562Z,11.43
2022-10-06T05:43:45.327Z,11.44
2022-10-06T05:47:07.181Z,11.53
2022-10-06T05:50:28.849Z,11.49
2022-10-06T05:53:52.279Z,11.51
2022-10-06T05:57:14.064Z,11.54
2022-10-06T06:00:35.885Z,11.58
2022-10-06T06:04:00.474Z,11.58
2022-10-06T06:07:22.518Z,11.50
2022-10-06T06:10:45.663Z,11.49
2022-10-06T06:14:09.505Z,11.54
2022-10-06T06:17:32.389Z,11.44
2022-10-06T06:20:58.485Z,11.34
2022-10-06T06:24:20.371Z,11.51
2022-10-06T06:27:43.671Z,11.52
2022-10-06T06:31:08.217Z,11.51
2022-10-06T06:34:30.252Z,11.55
2022-10-06T06:37:52.339Z,11.56
2022-10-06T06:41:18.389Z,11.54
2022-10-06T06:44:41.405Z,11.56
2022-10-06T06:48:06.063Z,11.59
2022-10-06T06:51:30.352Z,11.60
2022-10-06T06:54:51.945Z,11.65
2022-10-06T06:58:16.905Z,11.41
2022-10-06T07:01:41.598Z,11.74
2022-10-06T07:05:05.503Z,11.70
2022-10-06T07:08:28.120Z,11.80
2022-10-06T07:11:50.641Z,11.83
2022-10-06T07:15:30.281Z,11.91
2022-10-06T07:19:09.973Z,11.90
2022-10-06T07:22:50.877Z,12.01
2022-10-06T07:26:12.749Z,12.03
2022-10-06T07:30:01.083Z,12.12
2022-10-06T07:33:23.345Z,12.15
2022-10-06T07:36:59.663Z,12.17
2022-10-06T07:40:25.149Z,12.19
2022-10-06T07:43:47.429Z,12.18
2022-10-06T07:47:11.319Z,12.13
2022-10-06T07:50:34.015Z,12.03
2022-10-06T07:54:28.209Z,12.21
2022-10-06T07:57:53.021Z,12.25
2022-10-06T08:01:17.508Z,12.26
2022-10-06T08:04:39.595Z,12.31
2022-10-06T08:08:01.413Z,12.28
2022-10-06T08:11:23.847Z,12.38
2022-10-06T08:14:48.833Z,12.42
2022-10-06T08:18:46.094Z,12.36
2022-10-06T08:22:10.355Z,12.39
2022-10-06T08:25:32.115Z,12.41
2022-10-06T08:28:55.447Z,12.47
2022-10-06T08:32:20.736Z,12.51
2022-10-06T08:35:42.552Z,12.55
2022-10-06T08:39:07.300Z,12.53
2022-10-06T08:42:38.681Z,12.55
2022-10-06T08:46:03.153Z,12.51
2022-10-06T08:49:31.308Z,12.55
2022-10-06T09:05:31.671Z,12.36
2022-10-06T09:08:57.317Z,12.17
2022-10-06T09:12:27.836Z,12.33
2022-10-06T09:15:55.449Z,12.22
2022-10-06T09:19:21.192Z,12.20
2022-10-06T09:22:47.472Z,12.24
2022-10-06T09:26:13.341Z,12.22
2022-10-06T09:33:02.033Z,12.21
2022-10-06T09:36:24.274Z,12.29
2022-10-06T09:39:49.614Z,12.30
2022-10-06T09:43:20.510Z,12.30
2022-10-06T09:46:45.500Z,12.34
2022-10-06T09:50:22.146Z,12.34
2022-10-06T09:53:46.062Z,12.33
2022-10-06T09:57:17.895Z,12.32
2022-10-06T10:00:47.427Z,12.17
2022-10-06T10:04:20.602Z,12.27
2022-10-06T10:07:43.862Z,12.27
2022-10-06T10:11:40.060Z,12.27
2022-10-06T10:15:24.559Z,12.06
2022-10-06T10:18:51.068Z,12.29
2022-10-06T10:22:28.332Z,12.32
2022-10-06T10:26:14.731Z,12.33
2022-10-06T10:29:50.445Z,12.39
2022-10-06T10:36:52.073Z,12.41
2022-10-06T10:40:29.684Z,12.48
2022-10-06T10:43:59.630Z,12.52
2022-10-06T10:47:28.615Z,12.53
2022-10-06T10:51:00.198Z,12.61
2022-10-06T10:54:32.041Z,12.67
2022-10-06T10:57:57.732Z,12.72
2022-10-06T11:01:29.651Z,12.80
2022-10-06T11:04:54.633Z,12.86
2022-10-06T11:08:26.504Z,12.80
2022-10-06T11:12:09.397Z,12.96
2022-10-06T11:15:47.301Z,13.04
2022-10-06T11:19:23.294Z,13.14
2022-10-06T11:22:51.474Z,13.24
2022-10-06T11:26:27.559Z,13.27
2022-10-06T11:30:02.461Z,13.25
2022-10-06T11:33:30.695Z,13.21
2022-10-06T11:36:59.705Z,12.94
2022-10-06T11:40:53.484Z,12.92
2022-10-06T11:44:23.831Z,12.87
2022-10-06T11:48:10.916Z,12.86
2022-10-06T11:51:32.974Z,12.94
2022-10-06T11:54:56.666Z,13.05
2022-10-06T12:02:03.387Z,13.01
2022-10-06T12:09:53.597Z,12.97
2022-10-06T12:14:06.570Z,12.95
2022-10-06T12:17:19.047Z,13.01
2022-10-06T12:20:54.729Z,13.13
2022-10-06T12:24:34.682Z,13.22
2022-10-06T12:28:10.969Z,13.29
2022-10-06T12:31:47.025Z,13.27
2022-10-06T12:35:25.126Z,12.97
2022-10-06T12:39:05.457Z,13.17
2022-10-06T12:42:31.359Z,13.18
2022-10-06T12:45:58.971Z,13.16
2022-10-06T12:49:41.785Z,12.93
2022-10-06T12:53:14.281Z,13.23
2022-10-06T12:56:38.407Z,13.29
2022-10-06T13:00:00.044Z,13.35
2022-10-06T13:03:27.293Z,13.28
2022-10-06T13:06:51.334Z,13.41
2022-10-06T13:10:22.203Z,13.44
2022-10-06T13:13:51.751Z,13.44
2022-10-06T13:17:13.818Z,13.41
2022-10-06T13:20:39.749Z,13.28
2022-10-06T13:24:01.881Z,13.16
2022-10-06T13:27:25.037Z,13.03
2022-10-06T13:30:51.702Z,12.89
2022-10-06T13:34:16.086Z,12.84
2022-10-06T13:37:38.059Z,12.84
2022-10-06T13:41:08.828Z,12.70
2022-10-06T13:44:40.223Z,12.91
2022-10-06T13:48:09.189Z,12.97
2022-10-06T13:51:33.746Z,12.97
2022-10-06T13:54:58.604Z,12.85
2022-10-06T13:58:23.157Z,12.89
2022-10-06T14:01:46.509Z,12.81
2022-10-06T14:05:30.417Z,12.82
2022-10-06T14:08:55.776Z,12.80
2022-10-06T14:12:20.654Z,12.70
2022-10-06T14:15:49.493Z,12.66
2022-10-06T14:19:33.055Z,12.49
2022-10-06T14:22:55.119Z,12.48
2022-10-06T14:26:18.656Z,12.43
2022-10-06T14:29:41.446Z,12.35
2022-10-06T14:33:03.475Z,12.28
2022-10-06T14:36:28.497Z,12.26
2022-10-06T14:39:52.744Z,12.17
2022-10-06T14:43:14.850Z,12.08
2022-10-06T14:46:37.887Z,12.05
2022-10-06T14:49:59.725Z,11.90
2022-10-06T14:53:22.905Z,11.88
2022-10-06T14:56:45.038Z,11.91
2022-10-06T15:00:09.190Z,11.87
2022-10-06T15:03:31.270Z,11.60
2022-10-06T15:07:10.773Z,11.73
2022-10-06T15:10:36.207Z,11.63
2022-10-06T15:13:59.914Z,11.36
2022-10-06T15:17:24.623Z,11.39
2022-10-06T15:20:48.721Z,11.29
2022-10-06T15:24:14.280Z,11.14
2022-10-06T15:27:55.337Z,11.26
2022-10-06T15:31:24.095Z,11.28
2022-10-06T15:34:46.166Z,11.24
2022-10-06T15:38:08.100Z,11.05
2022-10-06T15:41:30.044Z,11.11
2022-10-06T15:44:53.603Z,11.25
2022-10-06T15:48:15.790Z,11.22
2022-10-06T15:51:45.022Z,11.24
2022-10-06T15:55:07.752Z,11.14
2022-10-06T15:58:29.851Z,11.05
2022-10-06T16:01:56.765Z,10.91
2022-10-06T16:05:46.050Z,10.89
2022-10-06T16:09:08.401Z,10.86
2022-10-06T16:12:30.493Z,10.83
2022-10-06T16:15:54.439Z,10.77
2022-10-06T16:19:18.913Z,10.69
2022-10-06T16:22:41.362Z,10.61
2022-10-06T16:26:03.726Z,10.52
2022-10-06T16:29:26.278Z,10.54
2022-10-06T16:32:48.542Z,10.55
2022-10-06T16:36:12.408Z,10.47
2022-10-06T16:39:33.967Z,10.48
2022-10-06T16:42:56.077Z,10.48
2022-10-06T16:46:19.898Z,10.46
2022-10-06T16:49:42.028Z,10.45
2022-10-06T16:53:05.516Z,10.19
2022-10-06T16:56:30.342Z,10.29
2022-10-06T16:59:52.326Z,10.39
2022-10-06T17:03:14.187Z,10.29
2022-10-06T17:06:39.222Z,10.35
2022-10-06T17:10:22.140Z,10.35
2022-10-06T17:13:45.999Z,10.28
2022-10-06T17:17:08.321Z,10.41
2022-10-06T17:20:30.536Z,10.42
2022-10-06T17:23:53.965Z,10.35
2022-10-06T17:27:17.513Z,10.32
2022-10-06T17:30:39.631Z,10.38
2022-10-06T17:34:01.602Z,10.41
2022-10-06T17:37:23.480Z,10.37
2022-10-06T17:40:45.955Z,10.19
2022-10-06T17:44:10.862Z,10.19
2022-10-06T17:47:32.914Z,10.08
2022-10-06T17:50:59.796Z,10.28
2022-10-06T17:54:26.931Z,10.24
2022-10-06T17:57:48.476Z,10.28
2022-10-06T18:01:14.708Z,10.27
2022-10-06T18:04:38.178Z,10.27
2022-10-06T18:08:01.009Z,10.24
2022-10-06T18:11:41.781Z,10.23
2022-10-06T18:15:04.115Z,10.27
2022-10-06T18:18:27.265Z,10.24
2022-10-06T18:21:49.458Z,10.29
2022-10-06T18:25:16.797Z,10.24
2022-10-06T18:28:39.389Z,10.41
2022-10-06T18:32:58.972Z,10.38
2022-10-06T18:39:31.269Z,10.45
2022-10-06T18:42:53.639Z,10.50
2022-10-06T18:46:34.715Z,10.55
2022-10-06T18:49:58.424Z,10.61
2022-10-06T18:53:21.767Z,10.68
2022-10-06T18:56:46.401Z,10.70
2022-10-06T19:00:10.618Z,10.73
2022-10-06T19:03:33.005Z,10.86
2022-10-06T19:06:56.607Z,10.88
2022-10-06T19:10:20.023Z,10.98
2022-10-06T19:13:47.381Z,10.93
2022-10-06T19:17:14.124Z,11.07
2022-10-06T19:20:35.952Z,11.08
2022-10-06T19:23:58.107Z,11.13
2022-10-06T19:27:24.453Z,11.16
2022-10-06T19:30:47.354Z,11.20
2022-10-06T19:34:11.948Z,11.11
2022-10-06T19:37:35.316Z,11.21
2022-10-06T19:41:18.797Z,11.27
2022-10-06T19:44:43.376Z,11.29
2022-10-06T19:48:05.710Z,11.29
2022-10-06T19:51:27.809Z,11.35
2022-10-06T19:54:49.663Z,11.35
2022-10-06T19:58:11.701Z,11.40
2022-10-06T20:01:35.151Z,11.42
2022-10-06T20:04:56.997Z,11.40
2022-10-06T20:08:20.268Z,11.42
2022-10-06T20:11:44.230Z,11.43
2022-10-06T20:15:07.536Z,11.43
2022-10-06T20:18:30.939Z,11.41
2022-10-06T20:21:53.138Z,11.36
2022-10-06T20:25:15.006Z,11.38
2022-10-06T20:28:36.967Z,11.35
2022-10-06T20:31:59.739Z,11.36
2022-10-06T20:35:23.054Z,11.35
2022-10-06T20:39:03.585Z,11.34
2022-10-06T20:42:28.030Z,11.33
2022-10-06T20:45:50.248Z,11.30
2022-10-06T20:49:15.280Z,11.27
2022-10-06T20:52:38.863Z,11.27
2022-10-06T20:56:01.699Z,11.30
2022-10-06T20:59:24.990Z,11.31
2022-10-06T21:02:47.165Z,11.28
2022-10-06T21:06:09.162Z,11.38
2022-10-06T21:09:32.924Z,11.43
2022-10-06T21:12:56.064Z,11.44
2022-10-06T21:16:18.198Z,11.28
2022-10-06T21:19:40.564Z,11.48
2022-10-06T21:23:03.248Z,11.46
2022-10-06T21:26:27.246Z,11.43
2022-10-06T21:29:49.111Z,11.43
2022-10-06T21:33:11.049Z,11.40
2022-10-06T21:36:32.996Z,11.37
2022-10-06T21:39:57.641Z,11.37
2022-10-06T21:43:25.916Z,11.37
2022-10-06T21:46:49.462Z,11.35
2022-10-06T21:50:11.325Z,11.38
2022-10-06T21:53:33.875Z,11.42
2022-10-06T21:56:55.864Z,11.44
2022-10-06T22:00:19.205Z,11.43
2022-10-06T22:03:41.555Z,11.39
2022-10-06T22:07:03.435Z,11.42
2022-10-06T22:10:25.240Z,11.42
2022-10-06T22:13:49.200Z,11.33
2022-10-06T22:17:12.711Z,11.43
2022-10-06T22:20:35.224Z,11.41
2022-10-06T22:23:59.656Z,11.42
2022-10-06T22:27:21.502Z,11.44
2022-10-06T22:30:43.571Z,11.43
2022-10-06T22:34:08.307Z,11.42
2022-10-06T22:37:30.241Z,11.39
2022-10-06T22:40:52.095Z,11.37
2022-10-06T22:44:13.913Z,11.35
2022-10-06T22:47:35.768Z,11.28
2022-10-06T22:50:59.122Z,11.30
2022-10-06T22:54:22.455Z,11.31
2022-10-06T22:57:44.825Z,11.33
2022-10-06T23:01:11.803Z,11.30
2022-10-06T23:04:33.654Z,11.37
2022-10-06T23:07:56.938Z,11.36
2022-10-06T23:11:20.366Z,11.43
2022-10-06T23:14:42.072Z,11.48
2022-10-06T23:18:04.139Z,11.47
2022-10-06T23:21:27.896Z,11.41
2022-10-06T23:24:51.449Z,11.48
2022-10-06T23:28:15.405Z,11.48
2022-10-06T23:31:37.426Z,11.46
2022-10-06T23:34:59.179Z,11.47
2022-10-06T23:38:21.056Z,11.53
2022-10-06T23:41:44.489Z,11.55
2022-10-06T23:45:07.857Z,11.54
2022-10-06T23:48:30.186Z,11.50
2022-10-06T23:51:52.151Z,11.55
2022-10-06T23:55:14.136Z,11.56
2022-10-06T23:58:37.820Z,11.58
